createdAt,value
2023-03-26T00:15:42.441Z,82.87
2023-03-26T00:45:42.498Z,82.67
2023-03-26T01:15:42.485Z,82.51
2023-03-26T01:45:42.452Z,82.23
2023-03-26T02:15:42.461Z,82.22
2023-03-26T02:45:42.488Z,82.15
2023-03-26T03:15:42.467Z,82.44
2023-03-26T03:45:42.482Z,82.76
2023-03-26T04:15:42.520Z,82.96
2023-03-26T04:45:42.499Z,83.04
2023-03-26T05:15:42.481Z,83.35
2023-03-26T05:45:42.508Z,83.27
2023-03-26T06:15:42.514Z,83.24
2023-03-26T06:45:42.491Z,83.21
2023-03-26T07:15:42.492Z,83.07
2023-03-26T07:45:42.555Z,82.85
2023-03-26T08:15:42.510Z,82.3
2023-03-26T08:45:42.502Z,82.5
2023-03-26T09:15:42.532Z,82.85
2023-03-26T09:45:42.537Z,83.65
2023-03-26T10:15:42.543Z,84.37
2023-03-26T10:45:42.598Z,85.46
2023-03-26T11:15:42.569Z,87.34
2023-03-26T11:45:42.576Z,88.47
2023-03-26T12:15:42.546Z,89.41
2023-03-26T12:45:42.617Z,90.52
2023-03-26T13:15:42.574Z,87.91
2023-03-26T13:45:42.592Z,83.92
2023-03-26T14:15:42.574Z,82.28
2023-03-26T14:45:42.586Z,85.69
2023-03-26T15:15:42.573Z,84.19
2023-03-26T15:45:42.584Z,83.69
2023-03-26T16:15:42.637Z,79.08
2023-03-26T16:45:42.587Z,76.26
2023-03-26T17:15:42.600Z,76.83
2023-03-26T17:45:42.634Z,76.65
2023-03-26T18:15:44.827Z,73.85
2023-03-26T18:45:42.622Z,72.98
2023-03-26T19:15:42.602Z,74.19
2023-03-26T19:45:59.395Z,76.09
2023-03-26T20:15:42.664Z,76.96
2023-03-26T20:45:42.617Z,77.73
2023-03-26T21:15:42.609Z,78.24
2023-03-26T21:45:42.628Z,78.6
2023-03-26T22:15:42.625Z,78.72
2023-03-26T22:45:42.620Z,78.77
2023-03-26T23:15:42.638Z,79.3
2023-03-26T23:45:42.700Z,81.09
